sensor_id;sensor_type;location;lat;lon;timestamp;P1;durP1;ratioP1;P2;durP2;ratioP2
18224;SDS011;9237;48.590;8.854;2023-05-07T00:00:29;0.70;;;0.70;;
18224;SDS011;9237;48.590;8.854;2023-05-07T00:02:56;0.70;;;0.70;;
18224;SDS011;9237;48.590;8.854;2023-05-07T00:05:22;0.70;;;0.70;;
18224;SDS011;9237;48.590;8.854;2023-05-07T00:07:49;0.70;;;0.70;;
18224;SDS011;9237;48.590;8.854;2023-05-07T00:10:18;0.70;;;0.70;;
18224;SDS011;9237;48.590;8.854;2023-05-07T00:12:45;0.70;;;0.70;;
18224;SDS011;9237;48.590;8.854;2023-05-07T00:15:12;0.70;;;0.70;;
18224;SDS011;9237;48.590;8.854;2023-05-07T00:17:39;0.70;;;0.70;;
18224;SDS011;9237;48.590;8.854;2023-05-07T00:20:06;0.70;;;0.70;;
18224;SDS011;9237;48.590;8.854;2023-05-07T00:22:33;0.80;;;0.80;;
18224;SDS011;9237;48.590;8.854;2023-05-07T00:25:00;0.70;;;0.70;;
18224;SDS011;9237;48.590;8.854;2023-05-07T00:27:28;0.70;;;0.70;;
18224;SDS011;9237;48.590;8.854;2023-05-07T00:29:54;0.70;;;0.70;;
18224;SDS011;9237;48.590;8.854;2023-05-07T00:32:21;0.70;;;0.70;;
18224;SDS011;9237;48.590;8.854;2023-05-07T00:34:48;0.70;;;0.70;;
18224;SDS011;9237;48.590;8.854;2023-05-07T00:37:16;0.70;;;0.70;;
18224;SDS011;9237;48.590;8.854;2023-05-07T00:39:42;0.70;;;0.70;;
18224;SDS011;9237;48.590;8.854;2023-05-07T00:42:09;0.70;;;0.70;;
18224;SDS011;9237;48.590;8.854;2023-05-07T00:44:37;0.70;;;0.70;;
18224;SDS011;9237;48.590;8.854;2023-05-07T00:47:04;0.70;;;0.70;;
18224;SDS011;9237;48.590;8.854;2023-05-07T00:49:38;0.80;;;0.80;;
18224;SDS011;9237;48.590;8.854;2023-05-07T00:52:07;0.70;;;0.70;;
18224;SDS011;9237;48.590;8.854;2023-05-07T00:54:37;0.70;;;0.70;;
18224;SDS011;9237;48.590;8.854;2023-05-07T00:57:04;0.70;;;0.70;;
18224;SDS011;9237;48.590;8.854;2023-05-07T00:59:32;0.80;;;0.80;;
18224;SDS011;9237;48.590;8.854;2023-05-07T01:02:01;0.70;;;0.70;;
18224;SDS011;9237;48.590;8.854;2023-05-07T01:04:27;0.70;;;0.70;;
18224;SDS011;9237;48.590;8.854;2023-05-07T01:06:55;0.77;;;0.77;;
18224;SDS011;9237;48.590;8.854;2023-05-07T01:09:24;0.70;;;0.70;;
18224;SDS011;9237;48.590;8.854;2023-05-07T01:11:51;0.80;;;0.80;;
18224;SDS011;9237;48.590;8.854;2023-05-07T01:14:19;0.70;;;0.70;;
18224;SDS011;9237;48.590;8.854;2023-05-07T01:16:46;0.70;;;0.70;;
18224;SDS011;9237;48.590;8.854;2023-05-07T01:19:14;0.70;;;0.70;;
18224;SDS011;9237;48.590;8.854;2023-05-07T01:21:45;0.60;;;0.60;;
18224;SDS011;9237;48.590;8.854;2023-05-07T01:24:14;0.80;;;0.80;;
18224;SDS011;9237;48.590;8.854;2023-05-07T01:26:41;0.70;;;0.70;;
18224;SDS011;9237;48.590;8.854;2023-05-07T01:29:08;0.70;;;0.70;;
18224;SDS011;9237;48.590;8.854;2023-05-07T01:31:35;0.70;;;0.70;;
18224;SDS011;9237;48.590;8.854;2023-05-07T01:34:03;0.70;;;0.70;;
18224;SDS011;9237;48.590;8.854;2023-05-07T01:36:32;0.70;;;0.70;;
18224;SDS011;9237;48.590;8.854;2023-05-07T01:39:00;0.70;;;0.70;;
18224;SDS011;9237;48.590;8.854;2023-05-07T01:41:30;0.70;;;0.70;;
18224;SDS011;9237;48.590;8.854;2023-05-07T01:43:57;0.70;;;0.70;;
18224;SDS011;9237;48.590;8.854;2023-05-07T01:46:25;0.70;;;0.70;;
18224;SDS011;9237;48.590;8.854;2023-05-07T01:48:52;0.70;;;0.70;;
18224;SDS011;9237;48.590;8.854;2023-05-07T01:51:19;0.70;;;0.70;;
18224;SDS011;9237;48.590;8.854;2023-05-07T01:53:47;0.70;;;0.70;;
18224;SDS011;9237;48.590;8.854;2023-05-07T01:56:16;0.70;;;0.70;;
18224;SDS011;9237;48.590;8.854;2023-05-07T01:58:45;0.70;;;0.70;;
18224;SDS011;9237;48.590;8.854;2023-05-07T02:01:12;0.70;;;0.70;;
18224;SDS011;9237;48.590;8.854;2023-05-07T02:03:39;0.70;;;0.70;;
18224;SDS011;9237;48.590;8.854;2023-05-07T02:06:06;0.70;;;0.70;;
18224;SDS011;9237;48.590;8.854;2023-05-07T02:08:33;0.70;;;0.70;;
18224;SDS011;9237;48.590;8.854;2023-05-07T02:11:00;0.80;;;0.80;;
18224;SDS011;9237;48.590;8.854;2023-05-07T02:13:28;0.70;;;0.70;;
18224;SDS011;9237;48.590;8.854;2023-05-07T02:15:57;0.70;;;0.70;;
18224;SDS011;9237;48.590;8.854;2023-05-07T02:18:24;0.70;;;0.70;;
18224;SDS011;9237;48.590;8.854;2023-05-07T02:20:51;0.70;;;0.70;;
18224;SDS011;9237;48.590;8.854;2023-05-07T02:23:18;0.80;;;0.80;;
18224;SDS011;9237;48.590;8.854;2023-05-07T02:25:44;0.80;;;0.80;;
18224;SDS011;9237;48.590;8.854;2023-05-07T02:28:11;0.70;;;0.70;;
18224;SDS011;9237;48.590;8.854;2023-05-07T02:30:38;0.70;;;0.70;;
18224;SDS011;9237;48.590;8.854;2023-05-07T02:33:07;0.80;;;0.80;;
18224;SDS011;9237;48.590;8.854;2023-05-07T02:35:34;0.80;;;0.80;;
18224;SDS011;9237;48.590;8.854;2023-05-07T02:38:01;0.70;;;0.70;;
18224;SDS011;9237;48.590;8.854;2023-05-07T02:40:28;0.70;;;0.70;;
18224;SDS011;9237;48.590;8.854;2023-05-07T02:42:55;0.77;;;0.77;;
18224;SDS011;9237;48.590;8.854;2023-05-07T02:45:21;0.80;;;0.80;;
18224;SDS011;9237;48.590;8.854;2023-05-07T02:47:48;0.70;;;0.70;;
18224;SDS011;9237;48.590;8.854;2023-05-07T02:50:16;0.73;;;0.73;;
18224;SDS011;9237;48.590;8.854;2023-05-07T02:52:43;0.70;;;0.70;;
18224;SDS011;9237;48.590;8.854;2023-05-07T02:55:10;0.70;;;0.70;;
18224;SDS011;9237;48.590;8.854;2023-05-07T02:57:37;0.70;;;0.70;;
18224;SDS011;9237;48.590;8.854;2023-05-07T03:00:10;0.70;;;0.70;;
18224;SDS011;9237;48.590;8.854;2023-05-07T03:02:37;0.70;;;0.70;;
18224;SDS011;9237;48.590;8.854;2023-05-07T03:05:05;0.70;;;0.70;;
18224;SDS011;9237;48.590;8.854;2023-05-07T03:07:34;0.80;;;0.80;;
18224;SDS011;9237;48.590;8.854;2023-05-07T03:10:01;0.77;;;0.77;;
18224;SDS011;9237;48.590;8.854;2023-05-07T03:12:28;0.70;;;0.70;;
18224;SDS011;9237;48.590;8.854;2023-05-07T03:14:54;0.70;;;0.70;;
18224;SDS011;9237;48.590;8.854;2023-05-07T03:17:21;0.77;;;0.77;;
18224;SDS011;9237;48.590;8.854;2023-05-07T03:19:48;0.80;;;0.80;;
18224;SDS011;9237;48.590;8.854;2023-05-07T03:22:15;0.70;;;0.70;;
18224;SDS011;9237;48.590;8.854;2023-05-07T03:24:43;0.70;;;0.70;;
18224;SDS011;9237;48.590;8.854;2023-05-07T03:27:10;0.70;;;0.70;;
18224;SDS011;9237;48.590;8.854;2023-05-07T03:29:37;0.70;;;0.70;;
18224;SDS011;9237;48.590;8.854;2023-05-07T03:32:04;0.70;;;0.70;;
18224;SDS011;9237;48.590;8.854;2023-05-07T03:34:30;0.73;;;0.73;;
18224;SDS011;9237;48.590;8.854;2023-05-07T03:36:57;0.63;;;0.63;;
18224;SDS011;9237;48.590;8.854;2023-05-07T03:39:24;0.70;;;0.70;;
18224;SDS011;9237;48.590;8.854;2023-05-07T03:41:52;0.70;;;0.70;;
18224;SDS011;9237;48.590;8.854;2023-05-07T03:44:19;0.80;;;0.80;;
18224;SDS011;9237;48.590;8.854;2023-05-07T03:46:46;0.80;;;0.80;;
18224;SDS011;9237;48.590;8.854;2023-05-07T03:49:13;0.80;;;0.80;;
18224;SDS011;9237;48.590;8.854;2023-05-07T03:51:40;0.80;;;0.80;;
18224;SDS011;9237;48.590;8.854;2023-05-07T03:54:07;0.80;;;0.80;;
18224;SDS011;9237;48.590;8.854;2023-05-07T03:56:34;0.80;;;0.80;;
18224;SDS011;9237;48.590;8.854;2023-05-07T03:59:02;0.70;;;0.70;;
18224;SDS011;9237;48.590;8.854;2023-05-07T04:01:29;0.80;;;0.80;;
18224;SDS011;9237;48.590;8.854;2023-05-07T04:03:55;0.70;;;0.70;;
18224;SDS011;9237;48.590;8.854;2023-05-07T04:06:23;0.80;;;0.80;;
18224;SDS011;9237;48.590;8.854;2023-05-07T04:08:50;0.70;;;0.70;;
18224;SDS011;9237;48.590;8.854;2023-05-07T04:11:17;0.80;;;0.80;;
18224;SDS011;9237;48.590;8.854;2023-05-07T04:13:43;0.70;;;0.70;;
18224;SDS011;9237;48.590;8.854;2023-05-07T04:16:12;0.73;;;0.73;;
18224;SDS011;9237;48.590;8.854;2023-05-07T04:18:38;0.80;;;0.80;;
18224;SDS011;9237;48.590;8.854;2023-05-07T04:21:05;0.80;;;0.80;;
18224;SDS011;9237;48.590;8.854;2023-05-07T04:23:39;0.70;;;0.70;;
18224;SDS011;9237;48.590;8.854;2023-05-07T04:26:06;0.70;;;0.70;;
18224;SDS011;9237;48.590;8.854;2023-05-07T04:28:33;0.70;;;0.70;;
18224;SDS011;9237;48.590;8.854;2023-05-07T04:31:00;0.80;;;0.80;;
18224;SDS011;9237;48.590;8.854;2023-05-07T04:33:28;0.80;;;0.80;;
18224;SDS011;9237;48.590;8.854;2023-05-07T04:35:55;0.70;;;0.70;;
18224;SDS011;9237;48.590;8.854;2023-05-07T04:38:22;0.80;;;0.80;;
18224;SDS011;9237;48.590;8.854;2023-05-07T04:40:49;0.73;;;0.73;;
18224;SDS011;9237;48.590;8.854;2023-05-07T04:43:16;0.70;;;0.70;;
18224;SDS011;9237;48.590;8.854;2023-05-07T04:45:43;0.80;;;0.80;;
18224;SDS011;9237;48.590;8.854;2023-05-07T04:48:10;0.80;;;0.80;;
18224;SDS011;9237;48.590;8.854;2023-05-07T04:50:38;0.70;;;0.70;;
18224;SDS011;9237;48.590;8.854;2023-05-07T04:53:05;0.70;;;0.70;;
18224;SDS011;9237;48.590;8.854;2023-05-07T04:55:31;0.80;;;0.80;;
18224;SDS011;9237;48.590;8.854;2023-05-07T04:57:58;0.70;;;0.70;;
18224;SDS011;9237;48.590;8.854;2023-05-07T05:00:26;0.70;;;0.70;;
18224;SDS011;9237;48.590;8.854;2023-05-07T05:02:53;0.80;;;0.80;;
18224;SDS011;9237;48.590;8.854;2023-05-07T05:05:20;0.70;;;0.70;;
18224;SDS011;9237;48.590;8.854;2023-05-07T05:07:48;0.70;;;0.70;;
18224;SDS011;9237;48.590;8.854;2023-05-07T05:10:16;0.70;;;0.70;;
18224;SDS011;9237;48.590;8.854;2023-05-07T05:12:44;0.70;;;0.70;;
18224;SDS011;9237;48.590;8.854;2023-05-07T05:15:10;0.70;;;0.70;;
18224;SDS011;9237;48.590;8.854;2023-05-07T05:17:37;0.70;;;0.70;;
18224;SDS011;9237;48.590;8.854;2023-05-07T05:20:05;0.70;;;0.70;;
18224;SDS011;9237;48.590;8.854;2023-05-07T05:22:32;0.70;;;0.70;;
18224;SDS011;9237;48.590;8.854;2023-05-07T05:25:00;0.60;;;0.60;;
18224;SDS011;9237;48.590;8.854;2023-05-07T05:27:27;0.70;;;0.70;;
18224;SDS011;9237;48.590;8.854;2023-05-07T05:29:55;0.70;;;0.70;;
18224;SDS011;9237;48.590;8.854;2023-05-07T05:32:21;0.70;;;0.70;;
18224;SDS011;9237;48.590;8.854;2023-05-07T05:34:48;0.70;;;0.70;;
18224;SDS011;9237;48.590;8.854;2023-05-07T05:37:16;0.70;;;0.70;;
18224;SDS011;9237;48.590;8.854;2023-05-07T05:39:43;0.60;;;0.60;;
18224;SDS011;9237;48.590;8.854;2023-05-07T05:42:11;0.60;;;0.60;;
18224;SDS011;9237;48.590;8.854;2023-05-07T05:44:38;0.60;;;0.60;;
18224;SDS011;9237;48.590;8.854;2023-05-07T05:47:05;0.63;;;0.63;;
18224;SDS011;9237;48.590;8.854;2023-05-07T05:49:31;0.63;;;0.63;;
18224;SDS011;9237;48.590;8.854;2023-05-07T05:51:59;0.60;;;0.60;;
18224;SDS011;9237;48.590;8.854;2023-05-07T05:54:26;0.60;;;0.60;;
18224;SDS011;9237;48.590;8.854;2023-05-07T05:56:52;0.70;;;0.70;;
18224;SDS011;9237;48.590;8.854;2023-05-07T05:59:21;0.63;;;0.63;;
18224;SDS011;9237;48.590;8.854;2023-05-07T06:01:48;0.60;;;0.60;;
18224;SDS011;9237;48.590;8.854;2023-05-07T06:04:14;0.60;;;0.60;;
18224;SDS011;9237;48.590;8.854;2023-05-07T06:06:42;0.60;;;0.60;;
18224;SDS011;9237;48.590;8.854;2023-05-07T06:09:09;0.70;;;0.70;;
18224;SDS011;9237;48.590;8.854;2023-05-07T06:11:36;0.60;;;0.60;;
18224;SDS011;9237;48.590;8.854;2023-05-07T06:14:03;0.70;;;0.70;;
18224;SDS011;9237;48.590;8.854;2023-05-07T06:16:31;0.60;;;0.60;;
18224;SDS011;9237;48.590;8.854;2023-05-07T06:18:58;0.60;;;0.60;;
18224;SDS011;9237;48.590;8.854;2023-05-07T06:21:24;0.60;;;0.60;;
18224;SDS011;9237;48.590;8.854;2023-05-07T06:23:51;0.60;;;0.60;;
18224;SDS011;9237;48.590;8.854;2023-05-07T06:26:19;0.60;;;0.60;;
18224;SDS011;9237;48.590;8.854;2023-05-07T06:28:46;0.57;;;0.57;;
18224;SDS011;9237;48.590;8.854;2023-05-07T06:31:13;0.60;;;0.60;;
18224;SDS011;9237;48.590;8.854;2023-05-07T06:33:42;0.60;;;0.60;;
18224;SDS011;9237;48.590;8.854;2023-05-07T06:36:09;0.60;;;0.60;;
18224;SDS011;9237;48.590;8.854;2023-05-07T06:38:36;0.60;;;0.60;;
18224;SDS011;9237;48.590;8.854;2023-05-07T06:41:03;0.60;;;0.60;;
18224;SDS011;9237;48.590;8.854;2023-05-07T06:43:31;0.60;;;0.60;;
18224;SDS011;9237;48.590;8.854;2023-05-07T06:45:58;0.50;;;0.50;;
18224;SDS011;9237;48.590;8.854;2023-05-07T06:48:24;0.60;;;0.60;;
18224;SDS011;9237;48.590;8.854;2023-05-07T06:50:53;0.55;;;0.55;;
18224;SDS011;9237;48.590;8.854;2023-05-07T06:53:20;0.50;;;0.50;;
18224;SDS011;9237;48.590;8.854;2023-05-07T06:55:47;0.55;;;0.55;;
18224;SDS011;9237;48.590;8.854;2023-05-07T06:58:14;0.60;;;0.60;;
18224;SDS011;9237;48.590;8.854;2023-05-07T07:00:41;0.50;;;0.50;;
18224;SDS011;9237;48.590;8.854;2023-05-07T07:03:08;0.50;;;0.50;;
18224;SDS011;9237;48.590;8.854;2023-05-07T07:05:35;0.50;;;0.50;;
18224;SDS011;9237;48.590;8.854;2023-05-07T07:08:03;0.50;;;0.50;;
18224;SDS011;9237;48.590;8.854;2023-05-07T07:10:30;0.43;;;0.43;;
18224;SDS011;9237;48.590;8.854;2023-05-07T07:12:57;0.55;;;0.55;;
18224;SDS011;9237;48.590;8.854;2023-05-07T07:15:24;0.50;;;0.50;;
18224;SDS011;9237;48.590;8.854;2023-05-07T07:17:51;0.50;;;0.50;;
18224;SDS011;9237;48.590;8.854;2023-05-07T07:20:17;0.50;;;0.50;;
18224;SDS011;9237;48.590;8.854;2023-05-07T07:22:44;0.50;;;0.50;;
18224;SDS011;9237;48.590;8.854;2023-05-07T07:25:12;0.40;;;0.40;;
18224;SDS011;9237;48.590;8.854;2023-05-07T07:27:39;0.40;;;0.40;;
18224;SDS011;9237;48.590;8.854;2023-05-07T07:30:06;0.40;;;0.40;;
18224;SDS011;9237;48.590;8.854;2023-05-07T07:32:34;0.50;;;0.50;;
18224;SDS011;9237;48.590;8.854;2023-05-07T07:35:01;0.50;;;0.50;;
18224;SDS011;9237;48.590;8.854;2023-05-07T07:37:27;0.50;;;0.50;;
18224;SDS011;9237;48.590;8.854;2023-05-07T07:39:54;0.50;;;0.50;;
18224;SDS011;9237;48.590;8.854;2023-05-07T07:42:23;0.60;;;0.60;;
18224;SDS011;9237;48.590;8.854;2023-05-07T07:44:50;0.50;;;0.50;;
18224;SDS011;9237;48.590;8.854;2023-05-07T07:47:16;0.50;;;0.50;;
18224;SDS011;9237;48.590;8.854;2023-05-07T07:49:43;0.50;;;0.50;;
18224;SDS011;9237;48.590;8.854;2023-05-07T07:52:10;0.40;;;0.40;;
18224;SDS011;9237;48.590;8.854;2023-05-07T07:54:37;0.50;;;0.50;;
18224;SDS011;9237;48.590;8.854;2023-05-07T07:57:04;0.40;;;0.40;;
18224;SDS011;9237;48.590;8.854;2023-05-07T07:59:32;0.40;;;0.40;;
18224;SDS011;9237;48.590;8.854;2023-05-07T08:01:59;0.40;;;0.40;;
18224;SDS011;9237;48.590;8.854;2023-05-07T08:04:26;0.40;;;0.40;;
18224;SDS011;9237;48.590;8.854;2023-05-07T08:06:53;0.40;;;0.40;;
18224;SDS011;9237;48.590;8.854;2023-05-07T08:09:21;0.30;;;0.30;;
18224;SDS011;9237;48.590;8.854;2023-05-07T08:11:47;0.40;;;0.40;;
18224;SDS011;9237;48.590;8.854;2023-05-07T08:14:14;0.40;;;0.40;;
18224;SDS011;9237;48.590;8.854;2023-05-07T08:16:43;0.40;;;0.40;;
18224;SDS011;9237;48.590;8.854;2023-05-07T08:19:09;0.30;;;0.30;;
18224;SDS011;9237;48.590;8.854;2023-05-07T08:21:38;0.40;;;0.40;;
18224;SDS011;9237;48.590;8.854;2023-05-07T08:24:05;0.40;;;0.40;;
18224;SDS011;9237;48.590;8.854;2023-05-07T08:26:32;0.30;;;0.30;;
18224;SDS011;9237;48.590;8.854;2023-05-07T08:29:00;0.32;;;0.32;;
18224;SDS011;9237;48.590;8.854;2023-05-07T08:31:27;0.40;;;0.40;;
18224;SDS011;9237;48.590;8.854;2023-05-07T08:33:55;0.30;;;0.30;;
18224;SDS011;9237;48.590;8.854;2023-05-07T08:36:23;0.30;;;0.30;;
18224;SDS011;9237;48.590;8.854;2023-05-07T08:38:50;0.40;;;0.40;;
18224;SDS011;9237;48.590;8.854;2023-05-07T08:41:17;0.30;;;0.30;;
18224;SDS011;9237;48.590;8.854;2023-05-07T08:43:46;0.30;;;0.30;;
18224;SDS011;9237;48.590;8.854;2023-05-07T08:46:15;0.30;;;0.30;;
18224;SDS011;9237;48.590;8.854;2023-05-07T08:48:44;0.30;;;0.30;;
18224;SDS011;9237;48.590;8.854;2023-05-07T08:51:13;0.30;;;0.30;;
18224;SDS011;9237;48.590;8.854;2023-05-07T08:53:42;0.30;;;0.30;;
18224;SDS011;9237;48.590;8.854;2023-05-07T08:56:10;0.30;;;0.30;;
18224;SDS011;9237;48.590;8.854;2023-05-07T08:58:37;0.28;;;0.28;;
18224;SDS011;9237;48.590;8.854;2023-05-07T09:01:06;0.30;;;0.30;;
18224;SDS011;9237;48.590;8.854;2023-05-07T09:03:34;0.30;;;0.30;;
18224;SDS011;9237;48.590;8.854;2023-05-07T09:06:02;0.30;;;0.30;;
18224;SDS011;9237;48.590;8.854;2023-05-07T09:08:32;0.30;;;0.30;;
18224;SDS011;9237;48.590;8.854;2023-05-07T09:10:59;0.30;;;0.30;;
18224;SDS011;9237;48.590;8.854;2023-05-07T09:13:26;0.30;;;0.30;;
18224;SDS011;9237;48.590;8.854;2023-05-07T09:15:54;0.30;;;0.30;;
18224;SDS011;9237;48.590;8.854;2023-05-07T09:18:21;0.20;;;0.20;;
18224;SDS011;9237;48.590;8.854;2023-05-07T09:20:49;0.30;;;0.30;;
18224;SDS011;9237;48.590;8.854;2023-05-07T09:23:16;0.30;;;0.30;;
18224;SDS011;9237;48.590;8.854;2023-05-07T09:25:44;0.30;;;0.30;;
18224;SDS011;9237;48.590;8.854;2023-05-07T09:28:11;0.30;;;0.30;;
18224;SDS011;9237;48.590;8.854;2023-05-07T09:30:38;0.20;;;0.20;;
18224;SDS011;9237;48.590;8.854;2023-05-07T09:33:05;0.25;;;0.25;;
18224;SDS011;9237;48.590;8.854;2023-05-07T09:35:31;0.30;;;0.30;;
18224;SDS011;9237;48.590;8.854;2023-05-07T09:37:59;0.30;;;0.30;;
18224;SDS011;9237;48.590;8.854;2023-05-07T09:40:28;0.30;;;0.30;;
18224;SDS011;9237;48.590;8.854;2023-05-07T09:43:07;0.30;;;0.30;;
18224;SDS011;9237;48.590;8.854;2023-05-07T09:45:36;0.30;;;0.30;;
18224;SDS011;9237;48.590;8.854;2023-05-07T09:48:04;0.30;;;0.30;;
18224;SDS011;9237;48.590;8.854;2023-05-07T09:50:32;0.25;;;0.25;;
18224;SDS011;9237;48.590;8.854;2023-05-07T09:53:03;0.30;;;0.30;;
18224;SDS011;9237;48.590;8.854;2023-05-07T09:55:30;0.30;;;0.30;;
18224;SDS011;9237;48.590;8.854;2023-05-07T09:57:58;0.20;;;0.20;;
18224;SDS011;9237;48.590;8.854;2023-05-07T10:00:27;0.20;;;0.20;;
18224;SDS011;9237;48.590;8.854;2023-05-07T10:02:55;0.20;;;0.20;;
18224;SDS011;9237;48.590;8.854;2023-05-07T10:05:23;0.20;;;0.20;;
18224;SDS011;9237;48.590;8.854;2023-05-07T10:07:51;0.30;;;0.30;;
18224;SDS011;9237;48.590;8.854;2023-05-07T10:10:20;0.20;;;0.20;;
18224;SDS011;9237;48.590;8.854;2023-05-07T10:12:48;0.30;;;0.30;;
18224;SDS011;9237;48.590;8.854;2023-05-07T10:15:17;0.30;;;0.30;;
18224;SDS011;9237;48.590;8.854;2023-05-07T10:17:44;0.30;;;0.30;;
18224;SDS011;9237;48.590;8.854;2023-05-07T10:20:11;0.28;;;0.28;;
18224;SDS011;9237;48.590;8.854;2023-05-07T10:22:39;0.20;;;0.20;;
18224;SDS011;9237;48.590;8.854;2023-05-07T10:25:09;0.20;;;0.20;;
18224;SDS011;9237;48.590;8.854;2023-05-07T10:27:41;0.20;;;0.20;;
18224;SDS011;9237;48.590;8.854;2023-05-07T10:30:12;0.20;;;0.20;;
18224;SDS011;9237;48.590;8.854;2023-05-07T10:32:47;0.20;;;0.20;;
18224;SDS011;9237;48.590;8.854;2023-05-07T10:35:17;0.20;;;0.20;;
18224;SDS011;9237;48.590;8.854;2023-05-07T10:37:47;0.28;;;0.28;;
18224;SDS011;9237;48.590;8.854;2023-05-07T10:40:15;0.20;;;0.20;;
18224;SDS011;9237;48.590;8.854;2023-05-07T10:45:27;0.20;;;0.20;;
18224;SDS011;9237;48.590;8.854;2023-05-07T10:48:11;0.30;;;0.30;;
18224;SDS011;9237;48.590;8.854;2023-05-07T10:50:38;0.20;;;0.20;;
18224;SDS011;9237;48.590;8.854;2023-05-07T10:53:22;0.20;;;0.20;;
18224;SDS011;9237;48.590;8.854;2023-05-07T10:58:52;0.20;;;0.20;;
18224;SDS011;9237;48.590;8.854;2023-05-07T11:04:19;0.28;;;0.28;;
18224;SDS011;9237;48.590;8.854;2023-05-07T11:09:58;0.20;;;0.20;;
18224;SDS011;9237;48.590;8.854;2023-05-07T11:12:48;0.20;;;0.20;;
18224;SDS011;9237;48.590;8.854;2023-05-07T11:18:08;0.30;;;0.30;;
18224;SDS011;9237;48.590;8.854;2023-05-07T11:20:51;0.20;;;0.20;;
18224;SDS011;9237;48.590;8.854;2023-05-07T11:26:41;0.30;;;0.30;;
18224;SDS011;9237;48.590;8.854;2023-05-07T11:29:10;0.30;;;0.30;;
18224;SDS011;9237;48.590;8.854;2023-05-07T11:31:38;0.30;;;0.30;;
18224;SDS011;9237;48.590;8.854;2023-05-07T11:34:06;0.30;;;0.30;;
18224;SDS011;9237;48.590;8.854;2023-05-07T11:36:34;0.40;;;0.40;;
18224;SDS011;9237;48.590;8.854;2023-05-07T11:39:22;0.40;;;0.40;;
18224;SDS011;9237;48.590;8.854;2023-05-07T11:41:50;0.30;;;0.30;;
18224;SDS011;9237;48.590;8.854;2023-05-07T11:44:17;0.40;;;0.40;;
18224;SDS011;9237;48.590;8.854;2023-05-07T11:46:44;0.30;;;0.30;;
18224;SDS011;9237;48.590;8.854;2023-05-07T11:49:12;0.40;;;0.40;;
18224;SDS011;9237;48.590;8.854;2023-05-07T11:51:40;0.40;;;0.40;;
18224;SDS011;9237;48.590;8.854;2023-05-07T11:54:08;0.47;;;0.47;;
18224;SDS011;9237;48.590;8.854;2023-05-07T11:56:36;0.50;;;0.50;;
18224;SDS011;9237;48.590;8.854;2023-05-07T11:59:04;0.50;;;0.50;;
18224;SDS011;9237;48.590;8.854;2023-05-07T12:01:30;0.50;;;0.50;;
18224;SDS011;9237;48.590;8.854;2023-05-07T12:03:57;0.40;;;0.40;;
18224;SDS011;9237;48.590;8.854;2023-05-07T12:06:25;0.50;;;0.50;;
18224;SDS011;9237;48.590;8.854;2023-05-07T12:08:52;0.50;;;0.50;;
18224;SDS011;9237;48.590;8.854;2023-05-07T12:11:22;0.60;;;0.60;;
18224;SDS011;9237;48.590;8.854;2023-05-07T12:13:50;0.50;;;0.50;;
18224;SDS011;9237;48.590;8.854;2023-05-07T12:16:17;0.50;;;0.50;;
18224;SDS011;9237;48.590;8.854;2023-05-07T12:18:45;0.50;;;0.50;;
18224;SDS011;9237;48.590;8.854;2023-05-07T12:21:12;0.50;;;0.50;;
18224;SDS011;9237;48.590;8.854;2023-05-07T12:23:41;0.50;;;0.50;;
18224;SDS011;9237;48.590;8.854;2023-05-07T12:26:08;0.70;;;0.70;;
18224;SDS011;9237;48.590;8.854;2023-05-07T12:28:38;0.60;;;0.60;;
18224;SDS011;9237;48.590;8.854;2023-05-07T12:31:05;0.60;;;0.60;;
18224;SDS011;9237;48.590;8.854;2023-05-07T12:33:32;0.60;;;0.60;;
18224;SDS011;9237;48.590;8.854;2023-05-07T12:36:02;0.53;;;0.53;;
18224;SDS011;9237;48.590;8.854;2023-05-07T12:38:34;0.60;;;0.60;;
18224;SDS011;9237;48.590;8.854;2023-05-07T12:41:04;0.50;;;0.50;;
18224;SDS011;9237;48.590;8.854;2023-05-07T12:43:32;0.50;;;0.50;;
18224;SDS011;9237;48.590;8.854;2023-05-07T12:46:00;0.60;;;0.60;;
18224;SDS011;9237;48.590;8.854;2023-05-07T12:48:28;0.60;;;0.60;;
18224;SDS011;9237;48.590;8.854;2023-05-07T12:50:55;0.60;;;0.60;;
18224;SDS011;9237;48.590;8.854;2023-05-07T12:53:23;0.60;;;0.60;;
18224;SDS011;9237;48.590;8.854;2023-05-07T12:55:51;0.60;;;0.60;;
18224;SDS011;9237;48.590;8.854;2023-05-07T12:58:20;0.60;;;0.60;;
18224;SDS011;9237;48.590;8.854;2023-05-07T13:00:53;0.60;;;0.60;;
18224;SDS011;9237;48.590;8.854;2023-05-07T13:03:23;0.70;;;0.70;;
18224;SDS011;9237;48.590;8.854;2023-05-07T13:05:52;0.60;;;0.60;;
18224;SDS011;9237;48.590;8.854;2023-05-07T13:08:26;0.60;;;0.60;;
18224;SDS011;9237;48.590;8.854;2023-05-07T13:10:54;0.60;;;0.60;;
18224;SDS011;9237;48.590;8.854;2023-05-07T13:13:22;0.70;;;0.70;;
18224;SDS011;9237;48.590;8.854;2023-05-07T13:15:48;0.60;;;0.60;;
18224;SDS011;9237;48.590;8.854;2023-05-07T13:18:15;0.70;;;0.70;;
18224;SDS011;9237;48.590;8.854;2023-05-07T13:20:42;0.70;;;0.70;;
18224;SDS011;9237;48.590;8.854;2023-05-07T13:23:09;0.67;;;0.67;;
18224;SDS011;9237;48.590;8.854;2023-05-07T13:25:36;0.70;;;0.70;;
18224;SDS011;9237;48.590;8.854;2023-05-07T13:28:03;0.60;;;0.60;;
18224;SDS011;9237;48.590;8.854;2023-05-07T13:30:31;0.60;;;0.60;;
18224;SDS011;9237;48.590;8.854;2023-05-07T13:32:58;0.70;;;0.70;;
18224;SDS011;9237;48.590;8.854;2023-05-07T13:35:25;0.60;;;0.60;;
18224;SDS011;9237;48.590;8.854;2023-05-07T13:37:52;0.70;;;0.70;;
18224;SDS011;9237;48.590;8.854;2023-05-07T13:40:19;0.70;;;0.70;;
18224;SDS011;9237;48.590;8.854;2023-05-07T13:42:46;0.70;;;0.70;;
18224;SDS011;9237;48.590;8.854;2023-05-07T13:45:13;0.60;;;0.60;;
18224;SDS011;9237;48.590;8.854;2023-05-07T13:47:42;0.70;;;0.70;;
18224;SDS011;9237;48.590;8.854;2023-05-07T13:50:09;0.70;;;0.70;;
18224;SDS011;9237;48.590;8.854;2023-05-07T13:52:38;0.60;;;0.60;;
18224;SDS011;9237;48.590;8.854;2023-05-07T13:55:06;0.60;;;0.60;;
18224;SDS011;9237;48.590;8.854;2023-05-07T13:57:33;0.60;;;0.60;;
18224;SDS011;9237;48.590;8.854;2023-05-07T14:00:00;0.70;;;0.70;;
18224;SDS011;9237;48.590;8.854;2023-05-07T14:02:27;0.60;;;0.60;;
18224;SDS011;9237;48.590;8.854;2023-05-07T14:04:55;0.60;;;0.60;;
18224;SDS011;9237;48.590;8.854;2023-05-07T14:07:21;0.60;;;0.60;;
18224;SDS011;9237;48.590;8.854;2023-05-07T14:09:48;0.60;;;0.60;;
18224;SDS011;9237;48.590;8.854;2023-05-07T14:12:15;0.60;;;0.60;;
18224;SDS011;9237;48.590;8.854;2023-05-07T14:14:42;0.60;;;0.60;;
18224;SDS011;9237;48.590;8.854;2023-05-07T14:17:10;0.60;;;0.60;;
18224;SDS011;9237;48.590;8.854;2023-05-07T14:19:37;0.60;;;0.60;;
18224;SDS011;9237;48.590;8.854;2023-05-07T14:22:05;0.60;;;0.60;;
18224;SDS011;9237;48.590;8.854;2023-05-07T14:24:32;0.60;;;0.60;;
18224;SDS011;9237;48.590;8.854;2023-05-07T14:26:59;0.67;;;0.67;;
18224;SDS011;9237;48.590;8.854;2023-05-07T14:29:26;0.60;;;0.60;;
18224;SDS011;9237;48.590;8.854;2023-05-07T14:31:53;0.60;;;0.60;;
18224;SDS011;9237;48.590;8.854;2023-05-07T14:34:20;0.60;;;0.60;;
18224;SDS011;9237;48.590;8.854;2023-05-07T14:36:47;0.70;;;0.70;;
18224;SDS011;9237;48.590;8.854;2023-05-07T14:39:15;0.70;;;0.70;;
18224;SDS011;9237;48.590;8.854;2023-05-07T14:41:42;0.60;;;0.60;;
18224;SDS011;9237;48.590;8.854;2023-05-07T14:44:09;0.60;;;0.60;;
18224;SDS011;9237;48.590;8.854;2023-05-07T14:46:36;0.70;;;0.70;;
18224;SDS011;9237;48.590;8.854;2023-05-07T14:49:02;0.67;;;0.67;;
18224;SDS011;9237;48.590;8.854;2023-05-07T14:51:29;0.60;;;0.60;;
18224;SDS011;9237;48.590;8.854;2023-05-07T14:53:56;0.60;;;0.60;;
18224;SDS011;9237;48.590;8.854;2023-05-07T14:56:24;0.60;;;0.60;;
18224;SDS011;9237;48.590;8.854;2023-05-07T14:58:51;0.60;;;0.60;;
18224;SDS011;9237;48.590;8.854;2023-05-07T15:01:18;0.60;;;0.60;;
18224;SDS011;9237;48.590;8.854;2023-05-07T15:03:46;0.60;;;0.60;;
18224;SDS011;9237;48.590;8.854;2023-05-07T15:06:13;0.60;;;0.60;;
18224;SDS011;9237;48.590;8.854;2023-05-07T15:08:39;0.60;;;0.60;;
18224;SDS011;9237;48.590;8.854;2023-05-07T15:11:06;0.60;;;0.60;;
18224;SDS011;9237;48.590;8.854;2023-05-07T15:13:34;0.60;;;0.60;;
18224;SDS011;9237;48.590;8.854;2023-05-07T15:16:01;0.60;;;0.60;;
18224;SDS011;9237;48.590;8.854;2023-05-07T15:18:28;0.60;;;0.60;;
18224;SDS011;9237;48.590;8.854;2023-05-07T15:20:55;0.50;;;0.50;;